createdAt,value
2023-04-09T00:01:10.655Z,9.90
2023-04-09T00:03:56.223Z,9.90
2023-04-09T00:06:41.734Z,9.80
2023-04-09T00:09:27.570Z,9.80
2023-04-09T00:12:13.112Z,9.90
2023-04-09T00:14:58.818Z,9.80
2023-04-09T00:17:44.253Z,9.60
2023-04-09T00:20:29.911Z,9.70
2023-04-09T00:23:15.871Z,9.80
2023-04-09T00:26:01.367Z,9.60
2023-04-09T00:28:46.833Z,9.50
2023-04-09T00:31:33.336Z,9.40
2023-04-09T00:34:18.917Z,9.20
2023-04-09T00:37:04.880Z,9.30
2023-04-09T00:39:50.767Z,9.00
2023-04-09T00:42:37.507Z,9.20
2023-04-09T00:45:22.979Z,9.00
2023-04-09T00:48:08.728Z,9.10
2023-04-09T00:50:54.479Z,9.00
2023-04-09T00:53:40.750Z,8.90
2023-04-09T00:56:26.436Z,9.00
2023-04-09T00:59:12.252Z,8.80
2023-04-09T01:01:57.674Z,8.90
2023-04-09T01:04:43.771Z,8.80
2023-04-09T01:07:39.423Z,8.70
2023-04-09T01:10:25.784Z,8.90
2023-04-09T01:13:24.601Z,8.90
2023-04-09T01:16:11.206Z,8.90
2023-04-09T01:19:02.976Z,8.80
2023-04-09T01:21:48.683Z,8.70
2023-04-09T01:24:46.916Z,8.60
2023-04-09T01:27:49.938Z,8.60
2023-04-09T01:30:36.000Z,8.50
2023-04-09T01:33:22.061Z,8.40
2023-04-09T01:36:07.881Z,8.30
2023-04-09T01:38:55.350Z,8.50
2023-04-09T01:41:41.589Z,8.50
2023-04-09T01:44:27.572Z,8.40
2023-04-09T01:47:13.610Z,8.40
2023-04-09T01:49:59.338Z,8.20
2023-04-09T01:52:44.872Z,8.00
2023-04-09T01:55:30.575Z,8.00
2023-04-09T01:58:16.107Z,7.90
2023-04-09T02:01:14.367Z,7.90
2023-04-09T02:04:04.317Z,8.10
2023-04-09T02:06:55.393Z,8.10
2023-04-09T02:09:41.574Z,8.00
2023-04-09T02:12:27.795Z,8.10
2023-04-09T02:15:13.807Z,8.10
2023-04-09T02:17:59.538Z,8.10
2023-04-09T02:20:45.543Z,7.90
2023-04-09T02:23:32.414Z,7.90
2023-04-09T02:26:17.885Z,7.90
2023-04-09T02:29:03.573Z,7.80
2023-04-09T02:31:50.154Z,7.70
2023-04-09T02:34:35.802Z,7.60
2023-04-09T02:37:21.217Z,7.80
2023-04-09T02:40:07.029Z,7.60
2023-04-09T02:42:53.141Z,7.60
2023-04-09T02:45:38.427Z,7.70
2023-04-09T02:48:24.053Z,7.70
2023-04-09T02:51:09.479Z,7.70
2023-04-09T02:53:55.152Z,7.70
2023-04-09T02:56:40.865Z,7.70
2023-04-09T02:59:26.477Z,7.50
2023-04-09T03:02:13.176Z,7.60
2023-04-09T03:04:58.642Z,7.60
2023-04-09T03:07:44.280Z,7.60
2023-04-09T03:10:29.636Z,7.40
2023-04-09T03:13:15.419Z,7.40
2023-04-09T03:16:00.828Z,7.60
2023-04-09T03:18:46.472Z,7.30
2023-04-09T03:21:33.175Z,7.30
2023-04-09T03:24:18.796Z,8.40
2023-04-09T03:27:04.453Z,9.40
2023-04-09T03:29:51.078Z,10.10
2023-04-09T03:32:36.974Z,10.70
2023-04-09T03:35:23.172Z,9.50
2023-04-09T03:38:14.449Z,11.60
2023-04-09T03:41:00.432Z,11.90
2023-04-09T03:43:46.461Z,12.20
2023-04-09T03:46:35.019Z,12.30
2023-04-09T03:49:20.892Z,12.50
2023-04-09T03:52:06.927Z,12.60
2023-04-09T03:54:56.257Z,12.70
2023-04-09T03:57:43.808Z,12.80
2023-04-09T04:00:33.907Z,12.90
2023-04-09T04:03:41.444Z,12.90
2023-04-09T04:06:39.923Z,13.00
2023-04-09T04:09:44.725Z,13.10
2023-04-09T04:12:33.815Z,13.10
2023-04-09T04:15:26.064Z,13.20
2023-04-09T04:18:14.718Z,13.20
2023-04-09T04:21:03.984Z,13.30
2023-04-09T04:23:51.254Z,13.30
2023-04-09T04:26:41.295Z,13.30
2023-04-09T04:29:27.928Z,13.30
2023-04-09T04:32:16.276Z,13.40
2023-04-09T04:35:02.141Z,13.40
2023-04-09T04:37:49.524Z,13.40
2023-04-09T04:40:35.271Z,13.40
2023-04-09T04:43:20.751Z,13.50
2023-04-09T04:46:07.564Z,13.50
2023-04-09T04:48:53.078Z,13.50
2023-04-09T04:51:40.475Z,13.60
2023-04-09T04:54:29.131Z,13.60
2023-04-09T04:57:16.962Z,13.60
2023-04-09T05:00:02.548Z,13.60
2023-04-09T05:02:48.672Z,13.60
2023-04-09T05:05:43.803Z,13.60
2023-04-09T05:08:29.566Z,13.60
2023-04-09T05:11:16.974Z,11.40
2023-04-09T05:14:06.368Z,13.70
2023-04-09T05:16:52.456Z,13.60
2023-04-09T05:19:42.299Z,13.70
2023-04-09T05:22:29.429Z,13.70
2023-04-09T05:25:16.437Z,13.70
2023-04-09T05:28:02.106Z,13.70
2023-04-09T05:30:49.592Z,13.70
2023-04-09T05:33:38.491Z,13.70
2023-04-09T05:36:32.463Z,13.70
2023-04-09T05:39:18.528Z,13.70
2023-04-09T05:42:04.291Z,13.70
2023-04-09T05:44:54.162Z,13.70
2023-04-09T05:47:40.401Z,13.70
2023-04-09T05:50:36.010Z,13.80
2023-04-09T05:53:27.187Z,13.80
2023-04-09T05:56:14.459Z,13.80
2023-04-09T05:59:06.431Z,13.80
2023-04-09T06:01:52.096Z,13.80
2023-04-09T06:04:37.731Z,13.80
2023-04-09T06:07:23.400Z,13.90
2023-04-09T06:10:09.565Z,13.80
2023-04-09T06:12:55.154Z,13.90
2023-04-09T06:15:41.166Z,13.90
2023-04-09T06:18:27.373Z,13.90
2023-04-09T06:21:16.192Z,13.90
2023-04-09T06:24:01.866Z,13.90
2023-04-09T06:26:47.262Z,13.90
2023-04-09T06:29:32.888Z,13.90
2023-04-09T06:32:18.627Z,13.90
2023-04-09T06:35:04.222Z,13.90
2023-04-09T06:37:49.474Z,16.50
2023-04-09T06:40:35.361Z,13.90
2023-04-09T06:43:20.690Z,14.00
2023-04-09T06:46:10.505Z,14.00
2023-04-09T06:48:56.240Z,14.00
2023-04-09T06:51:41.779Z,14.00
2023-04-09T06:54:27.316Z,14.00
2023-04-09T06:57:13.023Z,14.00
2023-04-09T06:59:58.614Z,14.00
2023-04-09T07:02:44.695Z,14.10
2023-04-09T07:05:30.741Z,14.10
2023-04-09T07:08:16.487Z,14.00
2023-04-09T07:11:03.323Z,14.10
2023-04-09T07:13:48.689Z,14.10
2023-04-09T07:16:34.535Z,14.10
2023-04-09T07:19:19.843Z,14.10
2023-04-09T07:22:05.851Z,14.10
2023-04-09T07:24:55.066Z,14.20
2023-04-09T07:27:40.591Z,14.20
2023-04-09T07:30:26.472Z,14.20
2023-04-09T07:33:12.215Z,14.20
2023-04-09T07:35:57.820Z,15.60
2023-04-09T07:38:43.133Z,14.30
2023-04-09T07:41:28.670Z,14.20
2023-04-09T07:44:14.338Z,14.30
2023-04-09T07:47:00.084Z,14.30
2023-04-09T07:49:46.193Z,14.30
2023-04-09T07:52:31.839Z,14.30
2023-04-09T07:55:18.581Z,14.40
2023-04-09T07:58:06.009Z,14.40
2023-04-09T08:00:51.491Z,14.40
2023-04-09T08:03:38.445Z,14.40
2023-04-09T08:06:23.746Z,14.50
2023-04-09T08:09:09.511Z,14.50
2023-04-09T08:11:55.010Z,14.50
2023-04-09T08:14:41.374Z,14.60
2023-04-09T08:17:27.615Z,14.60
2023-04-09T08:20:13.013Z,14.60
2023-04-09T08:22:59.248Z,14.70
2023-04-09T08:25:44.813Z,14.60
2023-04-09T08:28:30.274Z,14.70
2023-04-09T08:31:16.539Z,14.70
2023-04-09T08:34:02.161Z,14.70
2023-04-09T08:36:47.781Z,14.70
2023-04-09T08:39:33.235Z,14.80
2023-04-09T08:42:19.689Z,14.80
2023-04-09T08:45:05.814Z,14.80
2023-04-09T08:47:52.102Z,14.90
2023-04-09T08:50:37.781Z,14.90
2023-04-09T08:53:23.634Z,12.00
2023-04-09T08:56:09.293Z,14.90
2023-04-09T08:58:56.100Z,15.00
2023-04-09T09:01:41.726Z,15.00
2023-04-09T09:04:43.792Z,12.50
2023-04-09T09:07:30.444Z,15.10
2023-04-09T09:10:16.229Z,15.10
2023-04-09T09:13:01.901Z,15.10
2023-04-09T09:15:50.469Z,15.10
2023-04-09T09:18:40.480Z,15.10
2023-04-09T09:21:27.524Z,15.10
2023-04-09T09:24:19.037Z,15.20
2023-04-09T09:27:04.789Z,15.20
2023-04-09T09:29:50.639Z,15.20
2023-04-09T09:32:36.433Z,15.30
2023-04-09T09:35:22.721Z,15.30
2023-04-09T09:38:08.244Z,15.40
2023-04-09T09:40:53.584Z,15.40
2023-04-09T09:43:42.598Z,15.40
2023-04-09T09:46:28.455Z,15.50
2023-04-09T09:49:13.977Z,15.50
2023-04-09T09:52:03.020Z,15.60
2023-04-09T09:54:52.246Z,15.60
2023-04-09T09:57:39.332Z,15.60
2023-04-09T10:00:25.632Z,15.70
2023-04-09T10:03:14.288Z,15.70
2023-04-09T10:06:01.566Z,15.70
2023-04-09T10:08:48.782Z,15.80
2023-04-09T10:11:36.575Z,15.80
2023-04-09T10:14:22.656Z,15.90
2023-04-09T10:17:08.290Z,15.90
2023-04-09T10:20:00.744Z,16.00
2023-04-09T10:22:48.233Z,16.00
2023-04-09T10:25:34.263Z,16.10
2023-04-09T10:28:19.684Z,16.20
2023-04-09T10:31:06.704Z,16.20
2023-04-09T10:33:52.233Z,16.30
2023-04-09T10:36:37.846Z,16.20
2023-04-09T10:39:28.091Z,16.20
2023-04-09T10:42:14.911Z,16.20
2023-04-09T10:45:06.618Z,16.20
2023-04-09T10:47:53.385Z,16.20
2023-04-09T10:50:39.060Z,16.20
2023-04-09T10:53:25.732Z,16.30
2023-04-09T10:56:17.332Z,16.30
2023-04-09T10:59:02.883Z,16.40
2023-04-09T11:01:54.849Z,16.40
2023-04-09T11:04:40.468Z,16.40
2023-04-09T11:07:27.281Z,16.50
2023-04-09T11:10:12.666Z,16.50
2023-04-09T11:12:58.388Z,16.60
2023-04-09T11:15:44.654Z,16.70
2023-04-09T11:18:30.920Z,16.70
2023-04-09T11:21:17.655Z,16.70
2023-04-09T11:24:03.113Z,16.80
2023-04-09T11:26:49.212Z,16.90
2023-04-09T11:29:35.343Z,17.00
2023-04-09T11:32:20.938Z,17.10
2023-04-09T11:35:14.198Z,20.80
2023-04-09T11:38:00.406Z,17.40
2023-04-09T11:40:49.566Z,17.60
2023-04-09T11:43:36.393Z,17.70
2023-04-09T11:46:26.127Z,17.90
2023-04-09T11:49:13.759Z,18.00
2023-04-09T11:52:01.128Z,17.80
2023-04-09T11:54:50.404Z,18.20
2023-04-09T11:57:46.534Z,18.30
2023-04-09T12:00:32.521Z,18.30
2023-04-09T12:03:18.409Z,18.30
2023-04-09T12:06:05.532Z,18.40
2023-04-09T12:08:58.403Z,18.40
2023-04-09T12:11:44.468Z,18.50
2023-04-09T12:14:29.888Z,18.50
2023-04-09T12:17:15.569Z,18.50
2023-04-09T12:20:02.231Z,18.50
2023-04-09T12:22:47.997Z,18.60
2023-04-09T12:25:35.534Z,18.60
2023-04-09T12:28:21.257Z,18.60
2023-04-09T12:31:09.756Z,18.70
2023-04-09T12:33:55.071Z,18.70
2023-04-09T12:36:43.806Z,18.70
2023-04-09T12:39:29.449Z,18.70
2023-04-09T12:42:15.537Z,18.70
2023-04-09T12:45:01.264Z,18.80
2023-04-09T12:47:46.860Z,18.80
2023-04-09T12:50:33.313Z,18.80
2023-04-09T12:53:18.772Z,18.80
2023-04-09T12:56:04.650Z,18.80
2023-04-09T12:58:49.963Z,18.80
2023-04-09T13:01:35.937Z,18.80
2023-04-09T13:04:21.904Z,18.80
2023-04-09T13:07:07.491Z,18.90
2023-04-09T13:09:53.002Z,18.90
2023-04-09T13:12:38.407Z,18.90
2023-04-09T13:15:24.029Z,19.00
2023-04-09T13:18:09.880Z,19.00
2023-04-09T13:20:55.453Z,19.00
2023-04-09T13:23:40.858Z,19.00
2023-04-09T13:26:26.138Z,19.10
2023-04-09T13:29:12.102Z,19.10
2023-04-09T13:31:57.654Z,19.10
2023-04-09T13:34:42.938Z,19.20
2023-04-09T13:37:28.727Z,19.20
2023-04-09T13:40:14.229Z,19.20
2023-04-09T13:43:00.286Z,19.20
2023-04-09T13:45:45.579Z,19.30
2023-04-09T13:48:31.164Z,19.20
2023-04-09T13:51:16.837Z,19.30
2023-04-09T13:54:04.516Z,19.30
2023-04-09T13:56:51.620Z,19.30
2023-04-09T13:59:38.191Z,19.30
2023-04-09T14:02:23.985Z,19.30
2023-04-09T14:05:09.627Z,19.40
2023-04-09T14:07:55.044Z,19.50
2023-04-09T14:10:40.663Z,19.60
2023-04-09T14:13:26.477Z,19.60
2023-04-09T14:16:12.152Z,19.70
2023-04-09T14:18:57.939Z,19.70
2023-04-09T14:21:43.304Z,19.60
2023-04-09T14:24:28.616Z,19.60
2023-04-09T14:27:14.439Z,19.60
2023-04-09T14:29:59.858Z,19.50
2023-04-09T14:32:45.880Z,19.50
2023-04-09T14:35:31.573Z,19.50
2023-04-09T14:38:17.934Z,19.50
2023-04-09T14:41:03.726Z,19.50
2023-04-09T14:43:49.314Z,19.60
2023-04-09T14:46:35.737Z,19.60
2023-04-09T14:49:21.504Z,19.70
2023-04-09T14:52:07.187Z,19.70
2023-04-09T14:54:52.817Z,19.70
2023-04-09T14:57:39.572Z,19.70
2023-04-09T15:00:25.150Z,19.70
2023-04-09T15:03:10.978Z,19.70
2023-04-09T15:05:56.813Z,19.60
2023-04-09T15:08:42.264Z,19.60
2023-04-09T15:11:28.867Z,19.60
2023-04-09T15:14:14.210Z,19.60
2023-04-09T15:16:59.904Z,19.60
2023-04-09T15:19:45.415Z,19.60
2023-04-09T15:22:31.250Z,19.60
2023-04-09T15:25:17.354Z,19.50
2023-04-09T15:28:03.213Z,19.50
2023-04-09T15:30:48.625Z,19.60
2023-04-09T15:33:34.120Z,19.60
2023-04-09T15:36:19.749Z,19.60
2023-04-09T15:39:05.740Z,23.00
2023-04-09T15:41:51.156Z,19.60
2023-04-09T15:44:36.896Z,19.60
2023-04-09T15:47:22.502Z,19.60
2023-04-09T15:50:08.320Z,19.60
2023-04-09T15:52:55.011Z,19.60
2023-04-09T15:55:40.755Z,19.60
2023-04-09T15:58:26.283Z,19.60
2023-04-09T16:01:12.715Z,19.50
2023-04-09T16:03:58.008Z,19.50
2023-04-09T16:06:43.682Z,19.60
2023-04-09T16:09:29.490Z,19.60
2023-04-09T16:12:15.018Z,19.60
2023-04-09T16:15:00.774Z,19.50
2023-04-09T16:17:46.512Z,19.50
2023-04-09T16:20:31.921Z,19.60
2023-04-09T16:23:17.565Z,19.50
2023-04-09T16:26:03.850Z,19.50
2023-04-09T16:28:49.481Z,19.60
2023-04-09T16:31:35.590Z,19.60
2023-04-09T16:34:21.226Z,19.60
2023-04-09T16:37:07.714Z,19.50
2023-04-09T16:39:53.486Z,19.50
2023-04-09T16:42:39.286Z,19.50
2023-04-09T16:45:24.906Z,19.50
2023-04-09T16:48:12.620Z,19.50
2023-04-09T16:50:58.352Z,19.60
2023-04-09T16:53:44.150Z,19.60
2023-04-09T16:56:29.575Z,19.60
2023-04-09T16:59:17.610Z,19.60
2023-04-09T17:02:03.250Z,19.60
2023-04-09T17:04:50.343Z,19.60
2023-04-09T17:07:35.695Z,19.60
2023-04-09T17:10:21.920Z,19.60
2023-04-09T17:13:07.602Z,19.60
2023-04-09T17:15:53.209Z,19.60
2023-04-09T17:18:39.102Z,19.60
2023-04-09T17:21:24.482Z,19.50
2023-04-09T17:24:10.230Z,19.60
2023-04-09T17:26:56.216Z,19.60
2023-04-09T17:29:41.849Z,19.50
2023-04-09T17:32:27.789Z,19.60
2023-04-09T17:35:13.318Z,19.50
2023-04-09T17:37:58.924Z,19.50
2023-04-09T17:40:44.628Z,19.60
2023-04-09T17:43:30.159Z,19.60
2023-04-09T17:46:17.271Z,19.50
2023-04-09T17:49:02.868Z,19.50
2023-04-09T17:51:48.748Z,19.50
2023-04-09T17:54:34.858Z,19.50
2023-04-09T17:57:20.336Z,19.50
2023-04-09T18:00:06.253Z,19.40
2023-04-09T18:02:53.963Z,19.40
2023-04-09T18:05:39.758Z,19.40
2023-04-09T18:08:25.667Z,19.40
2023-04-09T18:11:13.237Z,19.30
2023-04-09T18:13:59.429Z,19.40
2023-04-09T18:16:45.183Z,19.40
2023-04-09T18:19:31.350Z,19.30
2023-04-09T18:22:16.973Z,19.30
2023-04-09T18:25:02.682Z,19.30
2023-04-09T18:27:48.209Z,19.30
2023-04-09T18:30:36.141Z,19.30
2023-04-09T18:33:21.748Z,19.30
2023-04-09T18:36:07.367Z,19.20
2023-04-09T18:38:53.154Z,19.30
2023-04-09T18:41:38.844Z,19.20
2023-04-09T18:44:24.542Z,19.10
2023-04-09T18:47:11.082Z,19.10
2023-04-09T18:49:56.442Z,19.10
2023-04-09T18:52:42.547Z,19.00
2023-04-09T18:55:27.886Z,18.90
2023-04-09T18:58:15.065Z,18.90
2023-04-09T19:01:01.448Z,18.90
2023-04-09T19:03:47.724Z,18.80
2023-04-09T19:06:33.502Z,18.70
2023-04-09T19:09:19.103Z,18.50
2023-04-09T19:12:04.830Z,18.40
2023-04-09T19:14:50.290Z,18.30
2023-04-09T19:17:36.064Z,18.20
2023-04-09T19:20:21.878Z,18.10
2023-04-09T19:23:07.585Z,18.10
2023-04-09T19:25:55.088Z,18.00
2023-04-09T19:28:40.369Z,18.00
2023-04-09T19:31:26.308Z,17.90
2023-04-09T19:34:12.140Z,17.90
2023-04-09T19:36:57.921Z,17.80
2023-04-09T19:39:43.633Z,17.80
2023-04-09T19:42:29.013Z,17.80
2023-04-09T19:45:14.777Z,17.70
2023-04-09T19:48:00.441Z,17.70
2023-04-09T19:50:46.223Z,17.70
2023-04-09T19:53:32.829Z,17.70
2023-04-09T19:56:18.352Z,17.70
2023-04-09T19:59:03.986Z,17.70
2023-04-09T20:01:49.414Z,17.70
2023-04-09T20:04:34.927Z,17.60
2023-04-09T20:07:20.651Z,17.00
2023-04-09T20:10:06.397Z,16.20
2023-04-09T20:12:52.002Z,15.70
2023-04-09T20:15:37.588Z,15.20
2023-04-09T20:18:23.282Z,11.70
2023-04-09T20:21:08.912Z,14.60
2023-04-09T20:23:54.297Z,14.40
2023-04-09T20:26:39.911Z,14.20
2023-04-09T20:29:25.957Z,14.00
2023-04-09T20:32:11.579Z,13.90
2023-04-09T20:34:57.210Z,13.70
2023-04-09T20:37:42.841Z,13.60
2023-04-09T20:40:30.685Z,13.50
2023-04-09T20:43:16.006Z,13.40
2023-04-09T20:46:01.532Z,13.30
2023-04-09T20:48:47.343Z,13.10
2023-04-09T20:51:33.063Z,13.00
2023-04-09T20:54:21.399Z,12.90
2023-04-09T20:57:07.546Z,12.90
2023-04-09T20:59:53.758Z,12.80
2023-04-09T21:02:39.287Z,12.60
2023-04-09T21:05:25.294Z,12.60
2023-04-09T21:08:15.339Z,12.60
2023-04-09T21:11:00.897Z,12.40
2023-04-09T21:13:54.529Z,12.30
2023-04-09T21:16:41.274Z,12.30
2023-04-09T21:19:26.688Z,12.20
2023-04-09T21:22:14.029Z,12.20
2023-04-09T21:24:59.834Z,12.10
2023-04-09T21:27:46.774Z,12.00
2023-04-09T21:30:36.175Z,12.00
2023-04-09T21:33:21.534Z,12.00
2023-04-09T21:36:08.152Z,11.90
2023-04-09T21:38:53.999Z,11.90
2023-04-09T21:41:39.780Z,11.80
2023-04-09T21:44:25.392Z,11.70
2023-04-09T21:47:12.345Z,8.80
2023-04-09T21:49:58.650Z,11.70
2023-04-09T21:52:47.340Z,11.70
2023-04-09T21:55:32.965Z,11.60
2023-04-09T21:58:18.687Z,11.40
2023-04-09T22:01:05.258Z,11.30
2023-04-09T22:03:51.967Z,11.40
2023-04-09T22:06:37.786Z,11.30
2023-04-09T22:09:23.025Z,11.20
2023-04-09T22:12:08.719Z,11.20
2023-04-09T22:14:54.522Z,11.20
2023-04-09T22:17:39.953Z,11.00
2023-04-09T22:20:26.433Z,11.00
2023-04-09T22:23:12.341Z,11.00
2023-04-09T22:26:02.082Z,10.90
2023-04-09T22:28:47.857Z,10.90
2023-04-09T22:31:33.542Z,10.90
2023-04-09T22:34:21.394Z,10.90
2023-04-09T22:37:07.772Z,10.80
2023-04-09T22:39:53.315Z,10.70
2023-04-09T22:42:40.120Z,10.70
2023-04-09T22:45:27.824Z,10.70
2023-04-09T22:48:13.247Z,10.60
2023-04-09T22:50:59.006Z,12.00
2023-04-09T22:53:44.519Z,10.50
2023-04-09T22:56:31.633Z,10.50
2023-04-09T22:59:17.460Z,10.50
2023-04-09T23:02:03.280Z,10.50
2023-04-09T23:04:48.864Z,10.40
2023-04-09T23:07:34.404Z,10.50
2023-04-09T23:10:20.086Z,10.30
2023-04-09T23:13:06.111Z,10.30
2023-04-09T23:15:51.868Z,10.30
2023-04-09T23:18:37.452Z,10.30
2023-04-09T23:21:22.824Z,10.20
2023-04-09T23:24:08.513Z,10.10
2023-04-09T23:26:54.275Z,10.00
2023-04-09T23:29:39.982Z,10.00
2023-04-09T23:32:25.492Z,10.10
2023-04-09T23:35:11.484Z,10.10
2023-04-09T23:37:56.822Z,10.10
2023-04-09T23:40:42.716Z,10.00
2023-04-09T23:43:28.085Z,10.10
2023-04-09T23:46:13.712Z,10.10
2023-04-09T23:48:59.482Z,10.20
2023-04-09T23:51:44.988Z,10.00
2023-04-09T23:54:30.736Z,9.90
2023-04-09T23:57:17.351Z,9.90
